createdAt,value
2022-12-23T00:02:21.036Z,51.72
2022-12-23T00:05:26.012Z,49.88
2022-12-23T00:08:29.405Z,54.07
2022-12-23T00:11:34.445Z,49.67
2022-12-23T00:14:57.510Z,50.63
2022-12-23T00:18:00.977Z,50.00
2022-12-23T00:21:09.232Z,48.30
2022-12-23T00:24:12.884Z,51.30
2022-12-23T00:27:16.036Z,50.15
2022-12-23T00:30:21.746Z,47.93
2022-12-23T00:33:27.918Z,48.80
2022-12-23T00:36:31.507Z,50.28
2022-12-23T00:39:55.226Z,50.63
2022-12-23T00:43:01.400Z,48.95
2022-12-23T00:46:06.206Z,49.72
2022-12-23T00:49:32.113Z,52.33
2022-12-23T00:52:35.363Z,55.95
2022-12-23T00:55:38.991Z,54.90
2022-12-23T00:58:42.457Z,51.83
2022-12-23T01:02:04.491Z,51.87
2022-12-23T01:05:29.775Z,51.55
2022-12-23T01:08:33.684Z,56.10
2022-12-23T01:11:37.302Z,58.47
2022-12-23T01:14:40.850Z,52.28
2022-12-23T01:17:44.053Z,54.25
2022-12-23T01:20:48.442Z,52.13
2022-12-23T01:23:51.624Z,56.58
2022-12-23T01:26:55.412Z,54.17
2022-12-23T01:29:58.494Z,57.58
2022-12-23T01:33:02.091Z,57.13
2022-12-23T01:36:08.154Z,53.95
2022-12-23T01:39:13.043Z,50.12
2022-12-23T01:42:38.501Z,54.10
2022-12-23T01:45:42.172Z,55.70
2022-12-23T01:48:51.650Z,56.28
2022-12-23T01:51:55.100Z,57.58
2022-12-23T01:54:58.304Z,60.88
2022-12-23T01:58:10.691Z,56.92
2022-12-23T02:01:32.596Z,53.35
2022-12-23T02:04:36.330Z,52.63
2022-12-23T02:07:59.532Z,50.75
2022-12-23T02:11:28.375Z,53.85
2022-12-23T02:15:17.642Z,62.37
2022-12-23T02:18:33.014Z,54.10
2022-12-23T02:22:02.100Z,52.50
2022-12-23T02:25:16.227Z,55.12
2022-12-23T02:28:28.093Z,51.92
2022-12-23T02:31:43.751Z,57.78
2022-12-23T02:34:53.370Z,47.25
2022-12-23T02:38:07.957Z,56.27
2022-12-23T02:41:17.027Z,62.75
2022-12-23T02:44:46.240Z,47.30
2022-12-23T02:47:56.804Z,58.33
2022-12-23T02:51:02.464Z,58.05
2022-12-23T02:54:11.732Z,53.38
2022-12-23T02:57:19.855Z,62.33
2022-12-23T03:00:24.023Z,57.10
2022-12-23T03:03:28.803Z,55.15
2022-12-23T03:06:36.116Z,55.20
2022-12-23T03:09:50.998Z,51.03
2022-12-23T03:13:15.757Z,55.75
2022-12-23T03:16:37.863Z,54.05
2022-12-23T03:20:02.042Z,54.67
2022-12-23T03:23:23.362Z,54.67
2022-12-23T03:26:36.639Z,48.90
2022-12-23T03:29:46.345Z,48.38
2022-12-23T03:33:14.292Z,45.88
2022-12-23T03:36:24.779Z,47.92
2022-12-23T03:39:33.611Z,44.42
2022-12-23T03:42:41.561Z,45.90
2022-12-23T03:45:51.117Z,48.38
2022-12-23T03:49:01.726Z,45.15
2022-12-23T03:52:21.851Z,48.77
2022-12-23T03:55:30.753Z,47.35
2022-12-23T03:58:48.482Z,46.53
2022-12-23T04:01:54.940Z,45.28
2022-12-23T04:05:15.749Z,46.35
2022-12-23T04:08:37.572Z,48.50
2022-12-23T04:11:41.327Z,44.67
2022-12-23T04:14:49.398Z,47.40
2022-12-23T04:17:55.883Z,43.20
2022-12-23T04:21:01.280Z,46.83
2022-12-23T04:24:05.036Z,44.63
2022-12-23T04:27:11.041Z,44.38
2022-12-23T04:30:15.085Z,46.83
2022-12-23T04:33:18.432Z,47.85
2022-12-23T04:36:21.910Z,47.22
2022-12-23T04:39:25.106Z,48.10
2022-12-23T04:42:28.634Z,47.95
2022-12-23T04:45:33.064Z,48.90
2022-12-23T04:48:39.730Z,50.33
2022-12-23T04:51:43.100Z,51.37
2022-12-23T04:54:49.775Z,49.57
2022-12-23T04:57:53.001Z,57.22
2022-12-23T05:01:02.635Z,56.13
2022-12-23T05:04:06.047Z,55.60
2022-12-23T05:07:09.761Z,55.10
2022-12-23T05:10:13.021Z,54.38
2022-12-23T05:13:17.259Z,49.90
2022-12-23T05:16:21.886Z,55.87
2022-12-23T05:19:25.506Z,50.80
2022-12-23T05:22:28.889Z,49.55
2022-12-23T05:25:38.600Z,51.63
2022-12-23T05:28:46.774Z,45.92
2022-12-23T05:31:52.218Z,42.55
2022-12-23T05:34:56.053Z,41.40
2022-12-23T05:37:59.648Z,48.83
2022-12-23T05:41:03.352Z,45.47
2022-12-23T05:44:09.476Z,36.58
2022-12-23T05:47:12.600Z,42.93
2022-12-23T05:50:16.115Z,36.63
2022-12-23T05:53:22.021Z,37.10
2022-12-23T05:56:25.460Z,38.40
2022-12-23T05:59:31.642Z,37.15
2022-12-23T06:02:37.412Z,37.30
2022-12-23T06:05:43.630Z,36.05
2022-12-23T06:08:46.876Z,36.10
2022-12-23T06:11:50.573Z,41.63
2022-12-23T06:14:54.126Z,40.00
2022-12-23T06:17:57.461Z,33.53
2022-12-23T06:21:02.367Z,44.22
2022-12-23T06:24:06.319Z,37.20
2022-12-23T06:27:09.589Z,35.83
2022-12-23T06:30:14.523Z,36.70
2022-12-23T06:33:18.524Z,40.28
2022-12-23T06:36:22.283Z,39.40
2022-12-23T06:39:26.021Z,44.75
2022-12-23T06:42:29.589Z,28.45
2022-12-23T06:45:34.337Z,36.60
2022-12-23T06:48:37.928Z,40.10
2022-12-23T06:51:42.128Z,40.08
2022-12-23T06:54:46.895Z,39.33
2022-12-23T06:57:50.022Z,40.07
2022-12-23T07:00:54.148Z,39.47
2022-12-23T07:03:57.703Z,40.67
2022-12-23T07:07:01.345Z,42.40
2022-12-23T07:10:05.550Z,41.78
2022-12-23T07:13:11.924Z,39.13
2022-12-23T07:16:15.456Z,36.50
2022-12-23T07:19:18.995Z,37.23
2022-12-23T07:22:22.736Z,38.70
2022-12-23T07:25:26.504Z,32.85
2022-12-23T07:28:29.705Z,37.90
2022-12-23T07:31:33.717Z,29.92
2022-12-23T07:34:37.162Z,33.88
2022-12-23T07:37:40.711Z,31.77
2022-12-23T07:40:49.185Z,33.10
2022-12-23T07:43:52.908Z,34.97
2022-12-23T07:46:56.307Z,32.33
2022-12-23T07:49:59.766Z,32.67
2022-12-23T07:53:03.125Z,32.30
2022-12-23T07:56:06.591Z,31.98
2022-12-23T07:59:09.869Z,35.30
2022-12-23T08:02:15.857Z,33.35
2022-12-23T08:05:19.849Z,30.50
2022-12-23T08:08:23.171Z,30.30
2022-12-23T08:11:28.358Z,32.72
2022-12-23T08:14:31.507Z,29.50
2022-12-23T08:17:35.085Z,29.17
2022-12-23T08:20:38.541Z,20.43
2022-12-23T08:23:43.695Z,24.30
2022-12-23T08:26:47.079Z,20.52
2022-12-23T08:29:50.490Z,22.30
2022-12-23T08:32:53.766Z,20.08
2022-12-23T08:35:59.305Z,22.95
2022-12-23T08:39:06.606Z,22.70
2022-12-23T08:42:10.217Z,23.75
2022-12-23T08:45:13.419Z,23.12
2022-12-23T08:48:18.736Z,24.48
2022-12-23T08:51:23.817Z,24.37
2022-12-23T08:54:28.586Z,24.50
2022-12-23T08:57:31.912Z,25.80
2022-12-23T09:00:37.226Z,28.97
2022-12-23T09:03:43.025Z,27.40
2022-12-23T09:06:47.801Z,29.73
2022-12-23T09:09:51.005Z,25.75
2022-12-23T09:12:57.718Z,25.65
2022-12-23T09:16:01.625Z,26.17
2022-12-23T09:19:05.265Z,25.40
2022-12-23T09:22:09.514Z,24.57
2022-12-23T09:25:15.810Z,23.83
2022-12-23T09:28:19.002Z,25.02
2022-12-23T09:31:23.843Z,26.47
2022-12-23T09:34:27.157Z,25.60
2022-12-23T09:37:30.571Z,27.87
2022-12-23T09:40:36.795Z,25.42
2022-12-23T09:44:02.417Z,25.17
2022-12-23T09:47:11.910Z,24.15
2022-12-23T09:50:24.202Z,24.17
2022-12-23T09:53:44.583Z,26.20
2022-12-23T09:56:56.573Z,26.52
2022-12-23T10:00:13.367Z,22.70
2022-12-23T10:03:34.808Z,24.00
2022-12-23T10:06:40.258Z,25.75
2022-12-23T10:09:46.513Z,23.95
2022-12-23T10:12:53.059Z,24.40
2022-12-23T10:16:03.587Z,25.75
2022-12-23T10:19:20.975Z,24.33
2022-12-23T10:22:32.469Z,23.80
2022-12-23T10:25:46.591Z,23.97
2022-12-23T10:28:59.058Z,28.15
2022-12-23T10:32:17.348Z,19.83
2022-12-23T10:35:42.777Z,24.77
2022-12-23T10:39:04.719Z,31.37
2022-12-23T10:42:55.735Z,34.50
2022-12-23T10:46:17.486Z,32.75
2022-12-23T10:49:42.533Z,32.78
2022-12-23T10:52:49.378Z,37.00
2022-12-23T10:55:53.085Z,32.13
2022-12-23T10:59:00.998Z,31.97
2022-12-23T11:02:14.604Z,26.52
2022-12-23T11:05:27.116Z,27.15
2022-12-23T11:08:32.683Z,27.70
2022-12-23T11:12:00.114Z,28.17
2022-12-23T11:15:04.460Z,29.52
2022-12-23T11:18:18.865Z,34.75
2022-12-23T11:21:22.795Z,24.48
2022-12-23T11:24:38.003Z,26.52
2022-12-23T11:27:46.105Z,24.55
2022-12-23T11:30:56.497Z,22.57
2022-12-23T11:34:14.750Z,23.83
2022-12-23T11:37:41.836Z,24.37
2022-12-23T11:40:48.123Z,22.50
2022-12-23T11:44:26.984Z,24.27
2022-12-23T11:47:39.327Z,25.17
2022-12-23T11:51:00.025Z,24.52
2022-12-23T11:54:04.047Z,25.58
2022-12-23T11:57:18.024Z,24.83
2022-12-23T12:00:41.523Z,26.40
2022-12-23T12:03:49.921Z,25.57
2022-12-23T12:07:23.775Z,24.17
2022-12-23T12:10:35.358Z,23.40
2022-12-23T12:13:43.645Z,25.10
2022-12-23T12:17:19.163Z,26.15
2022-12-23T12:20:37.114Z,24.75
2022-12-23T12:27:58.582Z,26.08
2022-12-23T12:31:49.334Z,24.92
2022-12-23T12:35:00.473Z,27.33
2022-12-23T12:38:16.577Z,28.63
2022-12-23T12:41:28.464Z,26.58
2022-12-23T12:44:40.592Z,28.92
2022-12-23T12:48:24.237Z,30.13
2022-12-23T12:51:42.954Z,23.90
2022-12-23T12:54:59.601Z,29.55
2022-12-23T12:58:04.293Z,26.75
2022-12-23T13:01:28.200Z,29.35
2022-12-23T13:04:45.894Z,27.65
2022-12-23T13:08:13.981Z,29.00
2022-12-23T13:11:48.622Z,26.97
2022-12-23T13:15:10.618Z,25.65
2022-12-23T13:18:51.560Z,27.15
2022-12-23T13:22:03.608Z,25.70
2022-12-23T13:25:16.439Z,26.55
2022-12-23T13:28:44.560Z,26.83
2022-12-23T13:32:03.162Z,28.45
2022-12-23T13:35:32.287Z,27.73
2022-12-23T13:39:03.871Z,28.70
2022-12-23T13:42:14.018Z,26.67
2022-12-23T13:45:20.457Z,28.97
2022-12-23T13:48:35.953Z,27.30
2022-12-23T13:52:06.336Z,28.42
2022-12-23T13:55:12.346Z,31.20
2022-12-23T13:58:24.972Z,30.08
2022-12-23T14:01:42.856Z,30.52
2022-12-23T14:05:00.028Z,28.85
2022-12-23T14:08:19.923Z,27.80
2022-12-23T14:11:32.288Z,30.70
2022-12-23T14:14:36.078Z,28.95
2022-12-23T14:18:04.496Z,27.33
2022-12-23T14:21:12.197Z,28.62
2022-12-23T14:24:27.607Z,28.77
2022-12-23T14:28:10.390Z,29.57
2022-12-23T14:31:46.304Z,30.70
2022-12-23T14:35:17.198Z,31.90
2022-12-23T14:38:31.095Z,28.00
2022-12-23T14:41:55.613Z,28.75
2022-12-23T14:45:41.821Z,30.58
2022-12-23T14:48:45.259Z,27.90
2022-12-23T14:51:51.151Z,28.20
2022-12-23T14:55:28.431Z,28.52
2022-12-23T14:58:18.779Z,29.60
2022-12-23T15:01:41.199Z,32.03
2022-12-23T15:04:55.117Z,30.55
2022-12-23T15:07:58.524Z,33.65
2022-12-23T15:11:03.425Z,32.30
2022-12-23T15:14:16.734Z,31.90
2022-12-23T15:17:35.811Z,31.83
2022-12-23T15:20:41.456Z,34.63
2022-12-23T15:23:50.694Z,40.93
2022-12-23T15:27:24.749Z,38.50
2022-12-23T15:30:18.356Z,34.05
2022-12-23T15:34:03.440Z,33.53
2022-12-23T15:36:56.043Z,32.40
2022-12-23T15:40:09.419Z,34.00
2022-12-23T15:43:22.488Z,32.88
2022-12-23T15:46:30.124Z,34.47
2022-12-23T15:49:34.397Z,35.53
2022-12-23T15:52:41.455Z,35.38
2022-12-23T15:55:49.101Z,34.90
2022-12-23T15:58:54.772Z,37.05
2022-12-23T16:01:58.886Z,35.70
2022-12-23T16:05:05.602Z,35.33
2022-12-23T16:08:12.048Z,34.78
2022-12-23T16:11:18.979Z,36.15
2022-12-23T16:14:35.829Z,33.38
2022-12-23T16:17:39.298Z,36.72
2022-12-23T16:20:56.252Z,39.70
2022-12-23T16:24:02.538Z,41.20
2022-12-23T16:27:05.772Z,40.47
2022-12-23T16:30:18.154Z,42.35
2022-12-23T16:33:43.294Z,38.58
2022-12-23T16:36:46.902Z,39.50
2022-12-23T16:39:50.033Z,39.45
2022-12-23T16:42:53.743Z,42.85
2022-12-23T16:45:58.064Z,68.30
2022-12-23T16:49:05.419Z,55.25
2022-12-23T16:52:14.824Z,42.13
2022-12-23T16:55:20.389Z,40.75
2022-12-23T16:58:23.961Z,44.93
2022-12-23T17:01:35.604Z,43.10
2022-12-23T17:04:38.923Z,44.38
2022-12-23T17:07:45.384Z,44.40
2022-12-23T17:10:50.433Z,48.90
2022-12-23T17:13:59.721Z,44.45
2022-12-23T17:17:16.819Z,48.08
2022-12-23T17:20:22.033Z,51.22
2022-12-23T17:23:25.441Z,48.33
2022-12-23T17:26:30.936Z,44.00
2022-12-23T17:29:36.724Z,46.07
2022-12-23T17:32:42.179Z,41.45
2022-12-23T17:35:45.415Z,38.85
2022-12-23T17:38:51.073Z,34.23
2022-12-23T17:41:58.326Z,27.70
2022-12-23T17:45:02.168Z,26.23
2022-12-23T17:48:07.007Z,24.63
2022-12-23T17:51:17.640Z,27.70
2022-12-23T17:54:25.206Z,29.67
2022-12-23T17:57:28.667Z,31.20
2022-12-23T18:00:38.261Z,29.67
2022-12-23T18:03:41.769Z,31.00
2022-12-23T18:06:45.051Z,27.37
2022-12-23T18:09:52.424Z,29.53
2022-12-23T18:12:58.311Z,29.17
2022-12-23T18:16:02.516Z,27.70
2022-12-23T18:19:15.601Z,28.77
2022-12-23T18:22:22.221Z,35.40
2022-12-23T18:25:27.540Z,38.05
2022-12-23T18:28:31.367Z,36.90
2022-12-23T18:31:37.172Z,34.00
2022-12-23T18:34:40.879Z,35.72
2022-12-23T18:37:44.047Z,34.00
2022-12-23T18:40:49.830Z,33.40
2022-12-23T18:43:57.686Z,37.90
2022-12-23T18:47:03.264Z,35.78
2022-12-23T18:50:07.337Z,37.03
2022-12-23T18:53:23.690Z,36.25
2022-12-23T18:56:27.272Z,34.55
2022-12-23T18:59:33.083Z,31.27
2022-12-23T19:02:38.697Z,33.27
2022-12-23T19:05:42.569Z,32.30
2022-12-23T19:08:45.935Z,32.47
2022-12-23T19:11:51.260Z,34.93
2022-12-23T19:14:54.477Z,32.55
2022-12-23T19:18:00.089Z,33.05
2022-12-23T19:21:09.537Z,38.28
2022-12-23T19:24:13.775Z,36.13
2022-12-23T19:27:17.036Z,39.58
2022-12-23T19:30:21.372Z,37.72
2022-12-23T19:33:24.665Z,40.17
2022-12-23T19:36:28.393Z,38.53
2022-12-23T19:39:34.018Z,39.88
2022-12-23T19:42:39.362Z,43.27
2022-12-23T19:45:43.699Z,44.83
2022-12-23T19:48:53.651Z,42.62
2022-12-23T19:51:57.010Z,52.70
2022-12-23T19:55:00.899Z,35.88
2022-12-23T19:58:04.457Z,39.85
2022-12-23T20:01:17.715Z,49.55
2022-12-23T20:04:25.170Z,41.30
2022-12-23T20:07:28.540Z,38.15
2022-12-23T20:10:37.046Z,43.25
2022-12-23T20:13:46.110Z,44.27
2022-12-23T20:16:49.875Z,44.00
2022-12-23T20:19:53.498Z,41.45
2022-12-23T20:22:59.971Z,39.15
2022-12-23T20:26:04.472Z,34.10
2022-12-23T20:29:08.930Z,46.25
2022-12-23T20:32:13.384Z,55.33
2022-12-23T20:35:17.248Z,43.37
2022-12-23T20:38:22.185Z,38.45
2022-12-23T20:41:28.883Z,39.75
2022-12-23T20:44:36.649Z,34.87
2022-12-23T20:47:41.100Z,35.50
2022-12-23T20:50:51.103Z,29.77
2022-12-23T20:53:56.278Z,29.65
2022-12-23T20:56:59.546Z,36.88
2022-12-23T21:00:06.085Z,33.55
2022-12-23T21:03:10.807Z,30.67
2022-12-23T21:06:14.777Z,28.67
2022-12-23T21:09:18.221Z,31.65
2022-12-23T21:12:21.863Z,28.55
2022-12-23T21:15:27.426Z,28.13
2022-12-23T21:18:32.342Z,27.95
2022-12-23T21:21:38.009Z,30.80
2022-12-23T21:24:41.542Z,30.58
2022-12-23T21:27:45.526Z,31.15
2022-12-23T21:30:52.428Z,31.98
2022-12-23T21:33:58.545Z,33.72
2022-12-23T21:37:02.739Z,32.07
2022-12-23T21:40:08.894Z,31.87
2022-12-23T21:43:13.621Z,29.35
2022-12-23T21:46:23.251Z,30.53
2022-12-23T21:49:29.637Z,32.05
2022-12-23T21:52:32.928Z,33.38
2022-12-23T21:55:36.414Z,32.78
2022-12-23T21:58:40.309Z,33.47
2022-12-23T22:01:44.165Z,30.58
2022-12-23T22:04:47.665Z,28.75
2022-12-23T22:07:51.309Z,25.90
2022-12-23T22:10:55.954Z,26.42
2022-12-23T22:14:02.092Z,25.10
2022-12-23T22:17:05.620Z,25.60
2022-12-23T22:20:09.619Z,27.40
2022-12-23T22:23:14.942Z,26.52
2022-12-23T22:26:25.659Z,24.42
2022-12-23T22:29:29.952Z,25.12
2022-12-23T22:32:42.148Z,25.20
2022-12-23T22:35:55.466Z,25.15
2022-12-23T22:39:01.017Z,24.37
2022-12-23T22:42:04.910Z,25.73
2022-12-23T22:45:09.962Z,24.12
2022-12-23T22:48:13.845Z,23.80
2022-12-23T22:51:26.277Z,24.80
2022-12-23T22:54:29.812Z,25.95
2022-12-23T22:57:33.348Z,24.73
2022-12-23T23:00:39.001Z,32.42
2022-12-23T23:03:43.689Z,43.97
2022-12-23T23:06:50.718Z,31.58
2022-12-23T23:09:55.178Z,28.97
2022-12-23T23:12:58.933Z,26.92
2022-12-23T23:16:06.591Z,27.73
2022-12-23T23:19:12.425Z,27.27
2022-12-23T23:22:17.666Z,33.95
2022-12-23T23:25:27.232Z,40.58
2022-12-23T23:28:31.014Z,35.60
2022-12-23T23:31:43.662Z,37.53
2022-12-23T23:34:47.500Z,38.72
2022-12-23T23:37:51.054Z,33.33
2022-12-23T23:40:56.511Z,31.83
2022-12-23T23:44:00.055Z,32.97
2022-12-23T23:47:03.280Z,31.25
2022-12-23T23:50:08.317Z,34.43
2022-12-23T23:53:13.807Z,32.22
2022-12-23T23:56:23.728Z,32.10
2022-12-23T23:59:29.036Z,31.83
